sensor_id;sensor_type;location;lat;lon;timestamp;P1;durP1;ratioP1;P2;durP2;ratioP2
22573;SDS011;11453;52.052;20.430;2022-08-07T00:01:20;7.10;;;2.60;;
22573;SDS011;11453;52.052;20.430;2022-08-07T00:03:50;6.07;;;2.30;;
22573;SDS011;11453;52.052;20.430;2022-08-07T00:06:19;4.22;;;2.05;;
22573;SDS011;11453;52.052;20.430;2022-08-07T00:08:48;6.80;;;2.08;;
22573;SDS011;11453;52.052;20.430;2022-08-07T00:11:17;4.20;;;1.90;;
22573;SDS011;11453;52.052;20.430;2022-08-07T00:13:47;6.00;;;2.38;;
22573;SDS011;11453;52.052;20.430;2022-08-07T00:16:15;5.93;;;2.40;;
22573;SDS011;11453;52.052;20.430;2022-08-07T00:18:45;6.90;;;2.40;;
22573;SDS011;11453;52.052;20.430;2022-08-07T00:21:15;3.88;;;1.80;;
22573;SDS011;11453;52.052;20.430;2022-08-07T00:23:45;8.60;;;2.10;;
22573;SDS011;11453;52.052;20.430;2022-08-07T00:26:16;4.97;;;1.95;;
22573;SDS011;11453;52.052;20.430;2022-08-07T00:28:47;7.55;;;2.13;;
22573;SDS011;11453;52.052;20.430;2022-08-07T00:31:20;5.75;;;2.40;;
22573;SDS011;11453;52.052;20.430;2022-08-07T00:33:50;6.22;;;2.40;;
22573;SDS011;11453;52.052;20.430;2022-08-07T00:36:21;5.50;;;2.40;;
22573;SDS011;11453;52.052;20.430;2022-08-07T00:38:51;3.63;;;2.10;;
22573;SDS011;11453;52.052;20.430;2022-08-07T00:41:23;6.75;;;2.00;;
22573;SDS011;11453;52.052;20.430;2022-08-07T00:43:57;4.47;;;2.00;;
22573;SDS011;11453;52.052;20.430;2022-08-07T00:46:25;7.00;;;2.30;;
22573;SDS011;11453;52.052;20.430;2022-08-07T00:48:51;4.38;;;2.20;;
22573;SDS011;11453;52.052;20.430;2022-08-07T00:51:20;4.75;;;2.20;;
22573;SDS011;11453;52.052;20.430;2022-08-07T00:53:48;5.13;;;2.10;;
22573;SDS011;11453;52.052;20.430;2022-08-07T00:56:19;5.50;;;2.22;;
22573;SDS011;11453;52.052;20.430;2022-08-07T00:58:48;5.53;;;2.05;;
22573;SDS011;11453;52.052;20.430;2022-08-07T01:01:18;5.72;;;1.83;;
22573;SDS011;11453;52.052;20.430;2022-08-07T01:03:49;8.32;;;2.08;;
22573;SDS011;11453;52.052;20.430;2022-08-07T01:06:19;3.40;;;1.70;;
22573;SDS011;11453;52.052;20.430;2022-08-07T01:08:48;4.95;;;1.85;;
22573;SDS011;11453;52.052;20.430;2022-08-07T01:11:19;5.15;;;2.00;;
22573;SDS011;11453;52.052;20.430;2022-08-07T01:13:45;4.68;;;2.10;;
22573;SDS011;11453;52.052;20.430;2022-08-07T01:16:15;6.22;;;2.25;;
22573;SDS011;11453;52.052;20.430;2022-08-07T01:18:45;6.30;;;2.28;;
22573;SDS011;11453;52.052;20.430;2022-08-07T01:21:16;5.22;;;2.00;;
22573;SDS011;11453;52.052;20.430;2022-08-07T01:23:49;5.10;;;1.77;;
22573;SDS011;11453;52.052;20.430;2022-08-07T01:26:17;3.75;;;1.98;;
22573;SDS011;11453;52.052;20.430;2022-08-07T01:28:47;5.25;;;2.08;;
22573;SDS011;11453;52.052;20.430;2022-08-07T01:31:18;5.30;;;2.10;;
22573;SDS011;11453;52.052;20.430;2022-08-07T01:33:45;4.25;;;2.08;;
22573;SDS011;11453;52.052;20.430;2022-08-07T01:36:15;4.28;;;2.10;;
22573;SDS011;11453;52.052;20.430;2022-08-07T01:38:45;5.15;;;1.95;;
22573;SDS011;11453;52.052;20.430;2022-08-07T01:41:15;7.55;;;2.17;;
22573;SDS011;11453;52.052;20.430;2022-08-07T01:43:44;6.75;;;2.10;;
22573;SDS011;11453;52.052;20.430;2022-08-07T01:46:18;7.43;;;2.20;;
22573;SDS011;11453;52.052;20.430;2022-08-07T01:48:47;4.35;;;2.08;;
22573;SDS011;11453;52.052;20.430;2022-08-07T01:51:20;5.00;;;2.20;;
22573;SDS011;11453;52.052;20.430;2022-08-07T01:53:54;4.10;;;2.03;;
22573;SDS011;11453;52.052;20.430;2022-08-07T01:56:29;8.00;;;2.30;;
22573;SDS011;11453;52.052;20.430;2022-08-07T01:59:08;5.43;;;2.38;;
22573;SDS011;11453;52.052;20.430;2022-08-07T02:01:42;6.40;;;2.30;;
22573;SDS011;11453;52.052;20.430;2022-08-07T02:04:14;7.97;;;2.45;;
22573;SDS011;11453;52.052;20.430;2022-08-07T02:06:49;4.88;;;2.40;;
22573;SDS011;11453;52.052;20.430;2022-08-07T02:09:21;6.43;;;2.42;;
22573;SDS011;11453;52.052;20.430;2022-08-07T02:11:51;5.80;;;2.20;;
22573;SDS011;11453;52.052;20.430;2022-08-07T02:14:24;4.40;;;2.55;;
22573;SDS011;11453;52.052;20.430;2022-08-07T02:16:53;5.32;;;2.50;;
22573;SDS011;11453;52.052;20.430;2022-08-07T02:19:23;5.88;;;2.30;;
22573;SDS011;11453;52.052;20.430;2022-08-07T02:21:54;4.75;;;2.30;;
22573;SDS011;11453;52.052;20.430;2022-08-07T02:24:27;8.70;;;2.42;;
22573;SDS011;11453;52.052;20.430;2022-08-07T02:26:59;4.85;;;2.28;;
22573;SDS011;11453;52.052;20.430;2022-08-07T02:29:30;5.55;;;2.03;;
22573;SDS011;11453;52.052;20.430;2022-08-07T02:31:58;6.18;;;2.53;;
22573;SDS011;11453;52.052;20.430;2022-08-07T02:34:26;5.05;;;2.20;;
22573;SDS011;11453;52.052;20.430;2022-08-07T02:36:55;6.47;;;2.53;;
22573;SDS011;11453;52.052;20.430;2022-08-07T02:39:26;5.07;;;2.40;;
22573;SDS011;11453;52.052;20.430;2022-08-07T02:41:57;5.03;;;2.30;;
22573;SDS011;11453;52.052;20.430;2022-08-07T02:44:26;7.15;;;2.63;;
22573;SDS011;11453;52.052;20.430;2022-08-07T02:46:57;7.25;;;2.70;;
22573;SDS011;11453;52.052;20.430;2022-08-07T02:49:28;5.72;;;2.28;;
22573;SDS011;11453;52.052;20.430;2022-08-07T02:51:58;5.70;;;2.80;;
22573;SDS011;11453;52.052;20.430;2022-08-07T02:54:28;6.75;;;3.05;;
22573;SDS011;11453;52.052;20.430;2022-08-07T02:57:00;8.52;;;2.80;;
22573;SDS011;11453;52.052;20.430;2022-08-07T02:59:29;6.55;;;2.50;;
22573;SDS011;11453;52.052;20.430;2022-08-07T03:01:59;5.35;;;2.38;;
22573;SDS011;11453;52.052;20.430;2022-08-07T03:04:27;6.57;;;3.05;;
22573;SDS011;11453;52.052;20.430;2022-08-07T03:06:56;6.07;;;2.40;;
22573;SDS011;11453;52.052;20.430;2022-08-07T03:09:26;6.55;;;2.70;;
22573;SDS011;11453;52.052;20.430;2022-08-07T03:11:55;7.28;;;2.25;;
22573;SDS011;11453;52.052;20.430;2022-08-07T03:14:25;5.05;;;2.63;;
22573;SDS011;11453;52.052;20.430;2022-08-07T03:16:55;6.93;;;2.53;;
22573;SDS011;11453;52.052;20.430;2022-08-07T03:19:25;6.57;;;2.50;;
22573;SDS011;11453;52.052;20.430;2022-08-07T03:21:53;6.00;;;2.35;;
22573;SDS011;11453;52.052;20.430;2022-08-07T03:24:22;5.32;;;2.25;;
22573;SDS011;11453;52.052;20.430;2022-08-07T03:26:51;5.15;;;2.42;;
22573;SDS011;11453;52.052;20.430;2022-08-07T03:29:17;2.67;;;2.10;;
22573;SDS011;11453;52.052;20.430;2022-08-07T03:31:48;6.78;;;2.40;;
22573;SDS011;11453;52.052;20.430;2022-08-07T03:34:17;4.75;;;2.35;;
22573;SDS011;11453;52.052;20.430;2022-08-07T03:36:49;3.97;;;2.33;;
22573;SDS011;11453;52.052;20.430;2022-08-07T03:39:18;3.80;;;2.20;;
22573;SDS011;11453;52.052;20.430;2022-08-07T03:41:48;6.50;;;2.15;;
22573;SDS011;11453;52.052;20.430;2022-08-07T03:44:19;5.22;;;2.50;;
22573;SDS011;11453;52.052;20.430;2022-08-07T03:46:51;5.95;;;2.20;;
22573;SDS011;11453;52.052;20.430;2022-08-07T03:49:21;4.85;;;2.45;;
22573;SDS011;11453;52.052;20.430;2022-08-07T03:51:49;5.38;;;2.03;;
22573;SDS011;11453;52.052;20.430;2022-08-07T03:54:19;6.53;;;2.30;;
22573;SDS011;11453;52.052;20.430;2022-08-07T03:56:48;6.32;;;2.58;;
22573;SDS011;11453;52.052;20.430;2022-08-07T03:59:18;5.15;;;2.33;;
22573;SDS011;11453;52.052;20.430;2022-08-07T04:01:47;4.95;;;2.40;;
22573;SDS011;11453;52.052;20.430;2022-08-07T04:04:17;6.20;;;2.88;;
22573;SDS011;11453;52.052;20.430;2022-08-07T04:06:47;4.97;;;2.40;;
22573;SDS011;11453;52.052;20.430;2022-08-07T04:09:15;6.90;;;2.53;;
22573;SDS011;11453;52.052;20.430;2022-08-07T04:11:46;3.53;;;2.25;;
22573;SDS011;11453;52.052;20.430;2022-08-07T04:14:14;5.30;;;2.75;;
22573;SDS011;11453;52.052;20.430;2022-08-07T04:16:44;5.68;;;2.60;;
22573;SDS011;11453;52.052;20.430;2022-08-07T04:19:13;5.40;;;2.53;;
22573;SDS011;11453;52.052;20.430;2022-08-07T04:21:42;6.13;;;2.80;;
22573;SDS011;11453;52.052;20.430;2022-08-07T04:24:12;5.47;;;2.88;;
22573;SDS011;11453;52.052;20.430;2022-08-07T04:26:40;5.68;;;2.80;;
22573;SDS011;11453;52.052;20.430;2022-08-07T04:29:08;8.43;;;3.38;;
22573;SDS011;11453;52.052;20.430;2022-08-07T04:31:38;7.32;;;3.40;;
22573;SDS011;11453;52.052;20.430;2022-08-07T04:34:07;7.20;;;3.10;;
22573;SDS011;11453;52.052;20.430;2022-08-07T04:36:36;4.88;;;2.90;;
22573;SDS011;11453;52.052;20.430;2022-08-07T04:39:03;8.68;;;3.03;;
22573;SDS011;11453;52.052;20.430;2022-08-07T04:41:34;7.15;;;3.30;;
22573;SDS011;11453;52.052;20.430;2022-08-07T04:44:04;7.30;;;3.47;;
22573;SDS011;11453;52.052;20.430;2022-08-07T04:46:43;5.10;;;3.03;;
22573;SDS011;11453;52.052;20.430;2022-08-07T04:52:13;7.18;;;3.30;;
22573;SDS011;11453;52.052;20.430;2022-08-07T04:55:02;7.65;;;3.10;;
22573;SDS011;11453;52.052;20.430;2022-08-07T05:00:33;6.03;;;2.58;;
22573;SDS011;11453;52.052;20.430;2022-08-07T05:06:21;11.02;;;3.25;;
22573;SDS011;11453;52.052;20.430;2022-08-07T05:11:49;5.55;;;2.80;;
22573;SDS011;11453;52.052;20.430;2022-08-07T05:16:52;6.15;;;2.78;;
22573;SDS011;11453;52.052;20.430;2022-08-07T05:19:24;8.45;;;3.30;;
22573;SDS011;11453;52.052;20.430;2022-08-07T05:21:58;5.85;;;2.53;;
22573;SDS011;11453;52.052;20.430;2022-08-07T05:24:27;9.55;;;3.05;;
22573;SDS011;11453;52.052;20.430;2022-08-07T05:26:57;6.80;;;2.80;;
22573;SDS011;11453;52.052;20.430;2022-08-07T05:29:28;6.72;;;2.97;;
22573;SDS011;11453;52.052;20.430;2022-08-07T05:31:58;8.65;;;2.90;;
22573;SDS011;11453;52.052;20.430;2022-08-07T05:34:29;8.45;;;3.20;;
22573;SDS011;11453;52.052;20.430;2022-08-07T05:36:59;6.70;;;3.30;;
22573;SDS011;11453;52.052;20.430;2022-08-07T05:39:30;8.15;;;3.20;;
22573;SDS011;11453;52.052;20.430;2022-08-07T05:41:59;8.02;;;3.20;;
22573;SDS011;11453;52.052;20.430;2022-08-07T05:44:30;9.00;;;3.30;;
22573;SDS011;11453;52.052;20.430;2022-08-07T05:47:00;8.18;;;3.55;;
22573;SDS011;11453;52.052;20.430;2022-08-07T05:49:29;7.72;;;3.45;;
22573;SDS011;11453;52.052;20.430;2022-08-07T05:51:59;8.75;;;3.10;;
22573;SDS011;11453;52.052;20.430;2022-08-07T05:54:28;7.72;;;3.60;;
22573;SDS011;11453;52.052;20.430;2022-08-07T05:56:57;6.70;;;3.25;;
22573;SDS011;11453;52.052;20.430;2022-08-07T05:59:28;5.53;;;2.88;;
22573;SDS011;11453;52.052;20.430;2022-08-07T06:01:58;6.03;;;2.90;;
22573;SDS011;11453;52.052;20.430;2022-08-07T06:04:28;8.60;;;3.40;;
22573;SDS011;11453;52.052;20.430;2022-08-07T06:06:56;7.70;;;3.42;;
22573;SDS011;11453;52.052;20.430;2022-08-07T06:11:55;5.80;;;2.65;;
22573;SDS011;11453;52.052;20.430;2022-08-07T06:14:24;5.45;;;2.65;;
22573;SDS011;11453;52.052;20.430;2022-08-07T06:16:52;8.38;;;3.40;;
22573;SDS011;11453;52.052;20.430;2022-08-07T06:19:23;7.13;;;2.92;;
22573;SDS011;11453;52.052;20.430;2022-08-07T06:21:52;7.45;;;3.50;;
22573;SDS011;11453;52.052;20.430;2022-08-07T06:24:21;6.25;;;3.13;;
22573;SDS011;11453;52.052;20.430;2022-08-07T06:26:50;7.50;;;3.85;;
22573;SDS011;11453;52.052;20.430;2022-08-07T06:29:25;6.03;;;3.42;;
22573;SDS011;11453;52.052;20.430;2022-08-07T06:31:52;6.90;;;3.05;;
22573;SDS011;11453;52.052;20.430;2022-08-07T06:34:22;10.38;;;4.05;;
22573;SDS011;11453;52.052;20.430;2022-08-07T06:36:52;8.07;;;3.40;;
22573;SDS011;11453;52.052;20.430;2022-08-07T06:39:22;7.72;;;3.60;;
22573;SDS011;11453;52.052;20.430;2022-08-07T06:41:57;8.57;;;3.08;;
22573;SDS011;11453;52.052;20.430;2022-08-07T06:44:31;6.43;;;3.13;;
22573;SDS011;11453;52.052;20.430;2022-08-07T06:47:01;7.05;;;2.85;;
22573;SDS011;11453;52.052;20.430;2022-08-07T06:49:30;7.78;;;2.08;;
22573;SDS011;11453;52.052;20.430;2022-08-07T06:52:00;5.22;;;1.92;;
22573;SDS011;11453;52.052;20.430;2022-08-07T06:54:29;5.13;;;1.52;;
22573;SDS011;11453;52.052;20.430;2022-08-07T06:56:56;4.82;;;1.40;;
22573;SDS011;11453;52.052;20.430;2022-08-07T06:59:31;4.97;;;2.08;;
22573;SDS011;11453;52.052;20.430;2022-08-07T07:02:00;5.30;;;1.50;;
22573;SDS011;11453;52.052;20.430;2022-08-07T07:04:31;6.20;;;1.30;;
22573;SDS011;11453;52.052;20.430;2022-08-07T07:07:02;3.28;;;1.30;;
22573;SDS011;11453;52.052;20.430;2022-08-07T07:09:31;4.20;;;1.90;;
22573;SDS011;11453;52.052;20.430;2022-08-07T07:14:27;6.15;;;1.77;;
22573;SDS011;11453;52.052;20.430;2022-08-07T07:16:57;5.63;;;1.52;;
22573;SDS011;11453;52.052;20.430;2022-08-07T07:19:31;4.55;;;1.33;;
22573;SDS011;11453;52.052;20.430;2022-08-07T07:22:06;6.90;;;2.00;;
22573;SDS011;11453;52.052;20.430;2022-08-07T07:24:34;5.50;;;1.83;;
22573;SDS011;11453;52.052;20.430;2022-08-07T07:27:04;3.70;;;1.38;;
22573;SDS011;11453;52.052;20.430;2022-08-07T07:29:35;4.38;;;1.77;;
22573;SDS011;11453;52.052;20.430;2022-08-07T07:34:37;4.28;;;1.33;;
22573;SDS011;11453;52.052;20.430;2022-08-07T07:37:10;2.25;;;1.10;;
22573;SDS011;11453;52.052;20.430;2022-08-07T07:39:42;3.90;;;1.10;;
22573;SDS011;11453;52.052;20.430;2022-08-07T07:42:13;5.47;;;1.13;;
22573;SDS011;11453;52.052;20.430;2022-08-07T07:44:44;6.35;;;1.50;;
22573;SDS011;11453;52.052;20.430;2022-08-07T07:47:14;5.25;;;1.20;;
22573;SDS011;11453;52.052;20.430;2022-08-07T07:49:43;5.80;;;1.42;;
22573;SDS011;11453;52.052;20.430;2022-08-07T07:52:14;5.78;;;1.83;;
22573;SDS011;11453;52.052;20.430;2022-08-07T07:54:44;3.47;;;1.40;;
22573;SDS011;11453;52.052;20.430;2022-08-07T07:57:11;5.88;;;2.10;;
22573;SDS011;11453;52.052;20.430;2022-08-07T07:59:40;5.03;;;1.30;;
22573;SDS011;11453;52.052;20.430;2022-08-07T08:02:08;4.18;;;1.30;;
22573;SDS011;11453;52.052;20.430;2022-08-07T08:04:38;3.17;;;1.30;;
22573;SDS011;11453;52.052;20.430;2022-08-07T08:09:37;6.90;;;1.90;;
22573;SDS011;11453;52.052;20.430;2022-08-07T08:12:06;6.35;;;1.63;;
22573;SDS011;11453;52.052;20.430;2022-08-07T08:14:36;4.63;;;1.40;;
22573;SDS011;11453;52.052;20.430;2022-08-07T08:17:06;4.97;;;1.33;;
22573;SDS011;11453;52.052;20.430;2022-08-07T08:19:39;5.30;;;2.17;;
22573;SDS011;11453;52.052;20.430;2022-08-07T08:22:07;7.78;;;2.67;;
22573;SDS011;11453;52.052;20.430;2022-08-07T08:24:54;3.72;;;1.50;;
22573;SDS011;11453;52.052;20.430;2022-08-07T08:27:39;5.47;;;1.40;;
22573;SDS011;11453;52.052;20.430;2022-08-07T08:30:10;3.53;;;1.48;;
22573;SDS011;11453;52.052;20.430;2022-08-07T08:32:38;2.42;;;1.25;;
22573;SDS011;11453;52.052;20.430;2022-08-07T08:35:13;3.60;;;1.60;;
22573;SDS011;11453;52.052;20.430;2022-08-07T08:37:45;3.70;;;1.40;;
22573;SDS011;11453;52.052;20.430;2022-08-07T08:40:19;4.18;;;1.65;;
22573;SDS011;11453;52.052;20.430;2022-08-07T08:42:57;5.50;;;1.65;;
22573;SDS011;11453;52.052;20.430;2022-08-07T08:53:55;2.00;;;1.17;;
22573;SDS011;11453;52.052;20.430;2022-08-07T08:56:43;4.35;;;1.45;;
22573;SDS011;11453;52.052;20.430;2022-08-07T09:12:45;3.72;;;1.55;;
22573;SDS011;11453;52.052;20.430;2022-08-07T09:18:15;4.78;;;1.50;;
22573;SDS011;11453;52.052;20.430;2022-08-07T09:27:18;5.00;;;1.50;;
22573;SDS011;11453;52.052;20.430;2022-08-07T09:32:45;6.53;;;1.38;;
22573;SDS011;11453;52.052;20.430;2022-08-07T09:41:02;5.47;;;1.40;;
22573;SDS011;11453;52.052;20.430;2022-08-07T09:43:41;3.92;;;1.30;;
22573;SDS011;11453;52.052;20.430;2022-08-07T09:49:32;5.25;;;1.67;;
22573;SDS011;11453;52.052;20.430;2022-08-07T09:52:22;3.60;;;1.50;;
22573;SDS011;11453;52.052;20.430;2022-08-07T10:00:20;3.22;;;1.40;;
22573;SDS011;11453;52.052;20.430;2022-08-07T10:14:22;2.50;;;0.73;;
22573;SDS011;11453;52.052;20.430;2022-08-07T10:17:19;1.88;;;0.80;;
22573;SDS011;11453;52.052;20.430;2022-08-07T10:20:20;2.20;;;0.98;;
22573;SDS011;11453;52.052;20.430;2022-08-07T10:26:26;3.22;;;1.00;;
22573;SDS011;11453;52.052;20.430;2022-08-07T10:28:57;5.60;;;1.10;;
22573;SDS011;11453;52.052;20.430;2022-08-07T10:39:39;4.03;;;1.30;;
22573;SDS011;11453;52.052;20.430;2022-08-07T10:45:17;4.07;;;1.40;;
22573;SDS011;11453;52.052;20.430;2022-08-07T10:47:55;4.80;;;1.60;;
22573;SDS011;11453;52.052;20.430;2022-08-07T10:50:41;5.80;;;1.30;;
22573;SDS011;11453;52.052;20.430;2022-08-07T10:53:49;4.72;;;1.38;;
22573;SDS011;11453;52.052;20.430;2022-08-07T11:02:04;2.80;;;0.90;;
22573;SDS011;11453;52.052;20.430;2022-08-07T11:10:27;3.60;;;0.98;;
22573;SDS011;11453;52.052;20.430;2022-08-07T11:12:57;10.00;;;2.08;;
22573;SDS011;11453;52.052;20.430;2022-08-07T11:15:37;3.63;;;1.10;;
22573;SDS011;11453;52.052;20.430;2022-08-07T11:20:58;10.73;;;2.95;;
22573;SDS011;11453;52.052;20.430;2022-08-07T11:24:03;4.22;;;1.42;;
22573;SDS011;11453;52.052;20.430;2022-08-07T11:26:45;5.68;;;1.55;;
22573;SDS011;11453;52.052;20.430;2022-08-07T11:43:14;3.70;;;0.98;;
22573;SDS011;11453;52.052;20.430;2022-08-07T11:45:50;4.35;;;1.15;;
22573;SDS011;11453;52.052;20.430;2022-08-07T11:48:29;2.15;;;0.90;;
22573;SDS011;11453;52.052;20.430;2022-08-07T11:53:32;6.03;;;1.10;;
22573;SDS011;11453;52.052;20.430;2022-08-07T12:07:22;31.58;;;7.05;;
22573;SDS011;11453;52.052;20.430;2022-08-07T12:10:14;7.07;;;2.10;;
22573;SDS011;11453;52.052;20.430;2022-08-07T12:12:55;11.38;;;2.28;;
22573;SDS011;11453;52.052;20.430;2022-08-07T12:15:38;7.25;;;1.75;;
22573;SDS011;11453;52.052;20.430;2022-08-07T12:20:49;8.95;;;2.33;;
22573;SDS011;11453;52.052;20.430;2022-08-07T12:23:39;13.95;;;4.15;;
22573;SDS011;11453;52.052;20.430;2022-08-07T12:26:13;4.50;;;1.20;;
22573;SDS011;11453;52.052;20.430;2022-08-07T12:34:24;14.32;;;5.07;;
22573;SDS011;11453;52.052;20.430;2022-08-07T12:36:53;9.30;;;4.30;;
22573;SDS011;11453;52.052;20.430;2022-08-07T12:39:24;6.53;;;2.10;;
22573;SDS011;11453;52.052;20.430;2022-08-07T12:41:54;2.72;;;1.42;;
22573;SDS011;11453;52.052;20.430;2022-08-07T12:44:24;6.15;;;2.20;;
22573;SDS011;11453;52.052;20.430;2022-08-07T12:49:43;3.38;;;1.30;;
22573;SDS011;11453;52.052;20.430;2022-08-07T12:52:40;3.15;;;1.33;;
22573;SDS011;11453;52.052;20.430;2022-08-07T12:57:57;4.05;;;1.60;;
22573;SDS011;11453;52.052;20.430;2022-08-07T13:00:49;3.88;;;1.60;;
22573;SDS011;11453;52.052;20.430;2022-08-07T13:06:07;1.80;;;0.70;;
22573;SDS011;11453;52.052;20.430;2022-08-07T13:18:56;3.90;;;1.05;;
22573;SDS011;11453;52.052;20.430;2022-08-07T13:21:28;3.00;;;1.00;;
22573;SDS011;11453;52.052;20.430;2022-08-07T13:26:39;5.25;;;1.58;;
22573;SDS011;11453;52.052;20.430;2022-08-07T13:29:25;1.65;;;0.88;;
22573;SDS011;11453;52.052;20.430;2022-08-07T13:32:15;3.55;;;1.60;;
22573;SDS011;11453;52.052;20.430;2022-08-07T13:35:06;2.45;;;1.00;;
22573;SDS011;11453;52.052;20.430;2022-08-07T13:40:12;3.55;;;0.90;;
22573;SDS011;11453;52.052;20.430;2022-08-07T13:45:06;2.78;;;0.90;;
22573;SDS011;11453;52.052;20.430;2022-08-07T13:47:36;1.65;;;0.77;;
22573;SDS011;11453;52.052;20.430;2022-08-07T13:50:08;2.28;;;0.85;;
22573;SDS011;11453;52.052;20.430;2022-08-07T13:52:39;1.95;;;0.70;;
22573;SDS011;11453;52.052;20.430;2022-08-07T13:55:14;2.67;;;0.80;;
22573;SDS011;11453;52.052;20.430;2022-08-07T14:00:14;1.92;;;0.52;;
22573;SDS011;11453;52.052;20.430;2022-08-07T14:05:19;2.65;;;0.90;;
22573;SDS011;11453;52.052;20.430;2022-08-07T14:07:50;1.90;;;0.70;;
22573;SDS011;11453;52.052;20.430;2022-08-07T14:10:20;2.28;;;0.60;;
22573;SDS011;11453;52.052;20.430;2022-08-07T14:15:29;1.95;;;0.85;;
22573;SDS011;11453;52.052;20.430;2022-08-07T14:18:01;1.80;;;0.73;;
22573;SDS011;11453;52.052;20.430;2022-08-07T14:20:32;2.20;;;1.00;;
22573;SDS011;11453;52.052;20.430;2022-08-07T14:23:08;2.58;;;0.70;;
22573;SDS011;11453;52.052;20.430;2022-08-07T14:25:41;1.95;;;0.80;;
22573;SDS011;11453;52.052;20.430;2022-08-07T14:28:13;2.92;;;0.60;;
22573;SDS011;11453;52.052;20.430;2022-08-07T14:30:46;2.90;;;0.90;;
22573;SDS011;11453;52.052;20.430;2022-08-07T14:33:16;2.53;;;0.70;;
22573;SDS011;11453;52.052;20.430;2022-08-07T14:35:43;4.75;;;0.85;;
22573;SDS011;11453;52.052;20.430;2022-08-07T14:38:14;3.42;;;0.60;;
22573;SDS011;11453;52.052;20.430;2022-08-07T14:40:47;2.85;;;0.82;;
22573;SDS011;11453;52.052;20.430;2022-08-07T14:43:26;2.08;;;0.60;;
22573;SDS011;11453;52.052;20.430;2022-08-07T14:45:57;3.58;;;0.93;;
22573;SDS011;11453;52.052;20.430;2022-08-07T14:48:27;2.13;;;0.88;;
22573;SDS011;11453;52.052;20.430;2022-08-07T14:51:00;2.35;;;0.70;;
22573;SDS011;11453;52.052;20.430;2022-08-07T14:53:39;4.13;;;1.27;;
22573;SDS011;11453;52.052;20.430;2022-08-07T14:56:13;2.70;;;1.27;;
22573;SDS011;11453;52.052;20.430;2022-08-07T14:58:44;3.55;;;0.90;;
22573;SDS011;11453;52.052;20.430;2022-08-07T15:01:17;2.70;;;0.77;;
22573;SDS011;11453;52.052;20.430;2022-08-07T15:03:49;4.45;;;0.90;;
22573;SDS011;11453;52.052;20.430;2022-08-07T15:06:20;2.28;;;0.80;;
22573;SDS011;11453;52.052;20.430;2022-08-07T15:08:52;2.22;;;1.10;;
22573;SDS011;11453;52.052;20.430;2022-08-07T15:11:28;3.30;;;1.00;;
22573;SDS011;11453;52.052;20.430;2022-08-07T15:13:59;2.03;;;0.95;;
22573;SDS011;11453;52.052;20.430;2022-08-07T15:16:47;3.38;;;1.10;;
22573;SDS011;11453;52.052;20.430;2022-08-07T15:19:30;2.28;;;1.20;;
22573;SDS011;11453;52.052;20.430;2022-08-07T15:22:04;2.92;;;1.13;;
22573;SDS011;11453;52.052;20.430;2022-08-07T15:24:35;2.75;;;1.33;;
22573;SDS011;11453;52.052;20.430;2022-08-07T15:27:09;2.45;;;1.27;;
22573;SDS011;11453;52.052;20.430;2022-08-07T15:29:43;1.52;;;0.90;;
22573;SDS011;11453;52.052;20.430;2022-08-07T15:32:12;2.55;;;0.80;;
22573;SDS011;11453;52.052;20.430;2022-08-07T15:34:47;2.63;;;0.80;;
22573;SDS011;11453;52.052;20.430;2022-08-07T15:37:20;3.08;;;1.33;;
22573;SDS011;11453;52.052;20.430;2022-08-07T15:39:52;4.05;;;1.40;;
22573;SDS011;11453;52.052;20.430;2022-08-07T15:45:02;2.78;;;0.98;;
22573;SDS011;11453;52.052;20.430;2022-08-07T15:47:43;2.58;;;1.05;;
22573;SDS011;11453;52.052;20.430;2022-08-07T15:50:19;2.72;;;1.35;;
22573;SDS011;11453;52.052;20.430;2022-08-07T15:52:47;2.58;;;1.02;;
22573;SDS011;11453;52.052;20.430;2022-08-07T15:55:17;2.00;;;0.90;;
22573;SDS011;11453;52.052;20.430;2022-08-07T15:57:45;2.75;;;1.00;;
22573;SDS011;11453;52.052;20.430;2022-08-07T16:00:19;3.72;;;1.38;;
22573;SDS011;11453;52.052;20.430;2022-08-07T16:02:46;2.63;;;1.20;;
22573;SDS011;11453;52.052;20.430;2022-08-07T16:05:20;2.45;;;0.85;;
22573;SDS011;11453;52.052;20.430;2022-08-07T16:07:53;2.75;;;1.20;;
22573;SDS011;11453;52.052;20.430;2022-08-07T16:10:51;4.05;;;1.08;;
22573;SDS011;11453;52.052;20.430;2022-08-07T16:19:06;3.47;;;1.35;;
22573;SDS011;11453;52.052;20.430;2022-08-07T16:21:41;2.28;;;0.90;;
22573;SDS011;11453;52.052;20.430;2022-08-07T16:27:05;3.08;;;1.48;;
22573;SDS011;11453;52.052;20.430;2022-08-07T16:32:37;3.53;;;1.40;;
22573;SDS011;11453;52.052;20.430;2022-08-07T16:35:39;3.70;;;1.30;;
22573;SDS011;11453;52.052;20.430;2022-08-07T16:38:04;2.58;;;1.58;;
22573;SDS011;11453;52.052;20.430;2022-08-07T16:54:07;4.20;;;1.20;;
22573;SDS011;11453;52.052;20.430;2022-08-07T17:05:42;3.63;;;1.25;;
22573;SDS011;11453;52.052;20.430;2022-08-07T17:08:41;2.13;;;1.15;;
22573;SDS011;11453;52.052;20.430;2022-08-07T17:11:14;3.15;;;1.35;;
22573;SDS011;11453;52.052;20.430;2022-08-07T17:14:01;5.57;;;1.20;;
22573;SDS011;11453;52.052;20.430;2022-08-07T17:16:47;4.45;;;1.42;;
22573;SDS011;11453;52.052;20.430;2022-08-07T17:19:25;3.15;;;1.70;;
22573;SDS011;11453;52.052;20.430;2022-08-07T17:22:18;2.20;;;1.20;;
22573;SDS011;11453;52.052;20.430;2022-08-07T17:25:11;3.17;;;1.20;;
22573;SDS011;11453;52.052;20.430;2022-08-07T17:30:12;3.05;;;1.30;;
22573;SDS011;11453;52.052;20.430;2022-08-07T17:35:33;3.42;;;1.50;;
22573;SDS011;11453;52.052;20.430;2022-08-07T17:38:09;3.15;;;1.15;;
22573;SDS011;11453;52.052;20.430;2022-08-07T17:43:27;4.15;;;2.08;;
22573;SDS011;11453;52.052;20.430;2022-08-07T17:48:38;5.47;;;1.50;;
22573;SDS011;11453;52.052;20.430;2022-08-07T17:51:21;4.05;;;1.80;;
22573;SDS011;11453;52.052;20.430;2022-08-07T17:54:11;4.82;;;1.70;;
22573;SDS011;11453;52.052;20.430;2022-08-07T17:56:48;6.10;;;2.00;;
22573;SDS011;11453;52.052;20.430;2022-08-07T18:00:27;9.02;;;1.95;;
22573;SDS011;11453;52.052;20.430;2022-08-07T18:02:35;5.70;;;1.90;;
22573;SDS011;11453;52.052;20.430;2022-08-07T18:08:14;5.95;;;1.98;;
22573;SDS011;11453;52.052;20.430;2022-08-07T18:10:59;7.07;;;1.98;;
22573;SDS011;11453;52.052;20.430;2022-08-07T18:13:55;8.38;;;2.05;;
22573;SDS011;11453;52.052;20.430;2022-08-07T18:19:35;6.82;;;3.20;;
22573;SDS011;11453;52.052;20.430;2022-08-07T18:24:46;9.50;;;3.22;;
22573;SDS011;11453;52.052;20.430;2022-08-07T18:38:32;12.70;;;5.88;;
22573;SDS011;11453;52.052;20.430;2022-08-07T19:01:56;8.45;;;4.03;;
22573;SDS011;11453;52.052;20.430;2022-08-07T19:04:53;9.45;;;4.57;;
22573;SDS011;11453;52.052;20.430;2022-08-07T19:07:30;6.57;;;4.47;;
22573;SDS011;11453;52.052;20.430;2022-08-07T19:10:04;11.57;;;6.65;;
22573;SDS011;11453;52.052;20.430;2022-08-07T19:17:57;6.63;;;3.15;;
22573;SDS011;11453;52.052;20.430;2022-08-07T19:20:46;7.60;;;3.30;;
22573;SDS011;11453;52.052;20.430;2022-08-07T19:23:38;6.15;;;2.97;;
22573;SDS011;11453;52.052;20.430;2022-08-07T19:26:11;7.15;;;2.75;;
22573;SDS011;11453;52.052;20.430;2022-08-07T19:28:45;5.13;;;2.20;;
22573;SDS011;11453;52.052;20.430;2022-08-07T19:31:21;5.15;;;2.40;;
22573;SDS011;11453;52.052;20.430;2022-08-07T19:33:56;5.57;;;2.00;;
22573;SDS011;11453;52.052;20.430;2022-08-07T19:36:29;5.18;;;2.13;;
22573;SDS011;11453;52.052;20.430;2022-08-07T19:39:02;9.63;;;2.22;;
22573;SDS011;11453;52.052;20.430;2022-08-07T19:41:31;5.32;;;2.15;;
22573;SDS011;11453;52.052;20.430;2022-08-07T19:44:05;4.65;;;2.45;;
22573;SDS011;11453;52.052;20.430;2022-08-07T19:46:37;5.60;;;2.97;;